createdAt,value
2023-01-08T00:04:18.177Z,95408.47
2023-01-08T00:09:20.208Z,95408.41
2023-01-08T00:14:22.172Z,95408.78
2023-01-08T00:19:24.175Z,95388.19
2023-01-08T00:24:26.432Z,95384.66
2023-01-08T00:29:28.347Z,95386.16
2023-01-08T00:34:30.892Z,95386.16
2023-01-08T00:39:33.193Z,95381.88
2023-01-08T00:44:35.252Z,95362.47
2023-01-08T00:49:37.621Z,95358.16
2023-01-08T00:54:39.971Z,95362.81
2023-01-08T00:59:42.240Z,95355.44
2023-01-08T01:04:44.601Z,95358.53
2023-01-08T01:09:47.240Z,95364.34
2023-01-08T01:14:49.337Z,95362.41
2023-01-08T01:19:51.723Z,95356.94
2023-01-08T01:24:53.736Z,95347.97
2023-01-08T01:29:55.923Z,95355.28
2023-01-08T01:34:57.937Z,95349.41
2023-01-08T01:39:59.950Z,95347.44
2023-01-08T01:45:18.000Z,95364.44
2023-01-08T01:50:29.892Z,95354.28
2023-01-08T01:55:35.891Z,95344.53
2023-01-08T02:00:38.423Z,95349.09
2023-01-08T02:06:11.672Z,95340.13
2023-01-08T02:11:34.767Z,95328.84
2023-01-08T02:16:48.139Z,95330.72
2023-01-08T02:22:08.861Z,95329.97
2023-01-08T02:27:13.307Z,95329.53
2023-01-08T02:32:15.417Z,95328.78
2023-01-08T02:37:17.296Z,95319.09
2023-01-08T02:42:56.890Z,95310.16
2023-01-08T02:48:10.587Z,95310.53
2023-01-08T02:53:23.554Z,95294.25
2023-01-08T02:58:28.276Z,95288.41
2023-01-08T03:03:33.538Z,95287.66
2023-01-08T03:08:42.524Z,95282.59
2023-01-08T03:13:53.629Z,95284.94
2023-01-08T03:19:01.364Z,95279.50
2023-01-08T03:24:05.516Z,95297.34
2023-01-08T03:29:13.862Z,95285.72
2023-01-08T03:34:16.896Z,95286.47
2023-01-08T03:39:24.080Z,95283.78
2023-01-08T03:44:26.180Z,95270.59
2023-01-08T03:49:30.062Z,95266.69
2023-01-08T03:54:35.052Z,95277.13
2023-01-08T03:59:36.721Z,95268.59
2023-01-08T04:04:38.893Z,95261.63
2023-01-08T04:09:40.807Z,95259.63
2023-01-08T04:14:42.667Z,95244.13
2023-01-08T04:19:45.270Z,95222.41
2023-01-08T04:24:47.076Z,95217.72
2023-01-08T04:29:48.966Z,95200.66
2023-01-08T04:34:50.899Z,95198.69
2023-01-08T04:39:53.209Z,95192.84
2023-01-08T04:44:55.305Z,95177.72
2023-01-08T04:49:57.337Z,95179.22
2023-01-08T04:54:59.079Z,95175.34
2023-01-08T05:00:00.735Z,95178.41
2023-01-08T05:05:02.848Z,95178.41
2023-01-08T05:10:05.232Z,95152.84
2023-01-08T05:15:07.677Z,95168.31
2023-01-08T05:20:09.779Z,95161.31
2023-01-08T05:25:11.628Z,95165.59
2023-01-08T05:30:13.754Z,95184.53
2023-01-08T05:35:15.498Z,95171.34
2023-01-08T05:40:17.423Z,95170.19
2023-01-08T05:45:19.157Z,95164.75
2023-01-08T05:50:21.064Z,95141.13
2023-01-08T05:55:23.208Z,95141.84
2023-01-08T06:00:26.448Z,95150.31
2023-01-08T06:05:28.761Z,95172.38
2023-01-08T06:10:30.554Z,95170.41
2023-01-08T06:15:32.387Z,95164.59
2023-01-08T06:20:34.157Z,95159.53
2023-01-08T06:25:37.065Z,95144.44
2023-01-08T06:30:38.776Z,95153.31
2023-01-08T06:35:40.491Z,95163.34
2023-01-08T06:40:42.174Z,95154.44
2023-01-08T06:45:43.993Z,95150.97
2023-01-08T06:50:45.822Z,95149.44
2023-01-08T06:55:47.716Z,95159.47
2023-01-08T07:00:50.116Z,95155.22
2023-01-08T07:05:51.827Z,95157.13
2023-01-08T07:10:54.037Z,95157.50
2023-01-08T07:15:56.316Z,95154.03
2023-01-08T07:20:58.169Z,95147.44
2023-01-08T07:26:01.613Z,95146.66
2023-01-08T07:31:05.867Z,95160.22
2023-01-08T07:36:08.803Z,95154.78
2023-01-08T07:41:13.488Z,95158.69
2023-01-08T07:46:17.342Z,95159.09
2023-01-08T07:51:21.092Z,95170.75
2023-01-08T07:56:24.175Z,95167.31
2023-01-08T08:01:29.029Z,95168.84
2023-01-08T08:06:31.806Z,95168.09
2023-01-08T08:11:33.499Z,95151.84
2023-01-08T08:16:35.312Z,95159.97
2023-01-08T08:21:37.243Z,95156.91
2023-01-08T08:26:39.523Z,95164.66
2023-01-08T08:31:41.800Z,95172.00
2023-01-08T08:36:44.412Z,95167.31
2023-01-08T08:41:46.295Z,95173.50
2023-01-08T08:46:48.114Z,95161.53
2023-01-08T08:51:50.009Z,95163.09
2023-01-08T08:56:52.079Z,95163.13
2023-01-08T09:01:54.927Z,95148.44
2023-01-08T09:06:56.916Z,95141.06
2023-01-08T09:11:58.852Z,95150.38
2023-01-08T09:17:00.536Z,95165.53
2023-01-08T09:22:03.104Z,95171.78
2023-01-08T09:27:05.403Z,95165.59
2023-01-08T09:32:08.100Z,95169.91
2023-01-08T09:37:09.858Z,95164.84
2023-01-08T09:42:13.737Z,95167.25
2023-01-08T09:47:38.088Z,95171.94
2023-01-08T09:52:42.725Z,95165.41
2023-01-08T09:57:46.580Z,95154.56
2023-01-08T10:02:49.018Z,95148.78
2023-01-08T10:07:50.814Z,95147.69
2023-01-08T10:12:53.611Z,95151.97
2023-01-08T10:18:05.926Z,95126.44
2023-01-08T10:23:16.065Z,95128.00
2023-01-08T10:28:35.997Z,95115.66
2023-01-08T10:33:42.234Z,95116.47
2023-01-08T10:38:55.312Z,95109.88
2023-01-08T10:44:14.913Z,95102.97
2023-01-08T10:49:39.902Z,95104.16
2023-01-08T10:54:41.552Z,95101.09
2023-01-08T10:59:44.907Z,95076.66
2023-01-08T11:04:52.810Z,95081.72
2023-01-08T11:09:55.963Z,95059.63
2023-01-08T11:14:57.873Z,95064.31
2023-01-08T11:20:29.171Z,95063.53
2023-01-08T11:25:32.060Z,95057.34
2023-01-08T11:30:36.610Z,95067.03
2023-01-08T11:35:42.872Z,95075.97
2023-01-08T11:40:53.209Z,95083.34
2023-01-08T11:46:27.178Z,95055.00
2023-01-08T11:51:35.403Z,95059.28
2023-01-08T11:56:56.008Z,95055.41
2023-01-08T12:02:19.739Z,95031.75
2023-01-08T12:07:45.695Z,95033.72
2023-01-08T12:12:56.612Z,95027.91
2023-01-08T12:18:13.754Z,95011.59
2023-01-08T12:23:34.056Z,95015.88
2023-01-08T12:29:06.984Z,95027.13
2023-01-08T12:34:20.373Z,95023.28
2023-01-08T12:39:36.111Z,95011.22
2023-01-08T12:44:39.046Z,95003.47
2023-01-08T12:49:49.665Z,95001.91
2023-01-08T12:55:21.934Z,94986.75
2023-01-08T13:00:45.851Z,94978.25
2023-01-08T13:05:48.053Z,94979.00
2023-01-08T13:10:53.975Z,94966.97
2023-01-08T13:16:20.426Z,94965.81
2023-01-08T13:21:33.582Z,94955.34
2023-01-08T13:26:36.950Z,94951.44
2023-01-08T13:31:42.149Z,94946.44
2023-01-08T13:36:55.780Z,94940.59
2023-01-08T13:42:23.568Z,94940.22
2023-01-08T13:47:35.876Z,94933.97
2023-01-08T13:52:46.344Z,94928.53
2023-01-08T13:57:55.356Z,94934.38
2023-01-08T14:02:57.265Z,94934.75
2023-01-08T14:08:01.852Z,94927.38
2023-01-08T14:13:09.185Z,94920.00
2023-01-08T14:18:13.772Z,94932.41
2023-01-08T14:23:27.463Z,94947.94
2023-01-08T14:28:29.193Z,94966.53
2023-01-08T14:33:35.845Z,94964.59
2023-01-08T14:38:39.155Z,94949.88
2023-01-08T14:43:47.551Z,94959.16
2023-01-08T14:48:51.061Z,94968.84
2023-01-08T14:53:57.117Z,94961.47
2023-01-08T14:59:00.254Z,94967.28
2023-01-08T15:04:07.759Z,94952.16
2023-01-08T15:09:36.147Z,94953.34
2023-01-08T15:14:37.882Z,94952.16
2023-01-08T15:19:46.649Z,94959.16
2023-01-08T15:24:58.428Z,94952.53
2023-01-08T15:30:01.061Z,94944.38
2023-01-08T15:35:15.058Z,94950.22
2023-01-08T15:40:17.388Z,94940.91
2023-01-08T15:45:22.364Z,94939.72
2023-01-08T15:50:26.526Z,94927.72
2023-01-08T15:55:28.574Z,94928.06
2023-01-08T16:00:30.708Z,94911.81
2023-01-08T16:05:33.240Z,94897.84
2023-01-08T16:10:35.335Z,94902.91
2023-01-08T16:15:39.210Z,94893.97
2023-01-08T16:20:40.986Z,94895.53
2023-01-08T16:25:42.859Z,94891.63
2023-01-08T16:30:44.964Z,94879.63
2023-01-08T16:36:03.398Z,94871.09
2023-01-08T16:41:05.800Z,94860.25
2023-01-08T16:46:16.701Z,94853.66
2023-01-08T16:51:18.761Z,94854.03
2023-01-08T16:56:22.705Z,94828.47
2023-01-08T17:01:24.523Z,94819.16
2023-01-08T17:06:26.193Z,94823.81
2023-01-08T17:11:28.197Z,94800.94
2023-01-08T17:16:30.734Z,94787.00
2023-01-08T17:21:33.771Z,94773.81
2023-01-08T17:26:36.510Z,94770.34
2023-01-08T17:31:45.649Z,94774.19
2023-01-08T17:36:49.459Z,94747.06
2023-01-08T17:42:18.417Z,94754.44
2023-01-08T17:47:21.696Z,94740.88
2023-01-08T17:52:26.073Z,94731.97
2023-01-08T17:57:37.317Z,94728.47
2023-01-08T18:02:51.038Z,94730.03
2023-01-08T18:07:58.717Z,94716.84
2023-01-08T18:13:07.402Z,94724.59
2023-01-08T18:18:09.240Z,94718.78
2023-01-08T18:23:11.657Z,94714.91
2023-01-08T18:28:13.788Z,94694.38
2023-01-08T18:33:16.564Z,94680.41
2023-01-08T18:38:20.148Z,94675.41
2023-01-08T18:43:27.669Z,94681.19
2023-01-08T18:48:37.524Z,94674.63
2023-01-08T18:53:41.901Z,94678.09
2023-01-08T18:58:44.111Z,94658.34
2023-01-08T19:03:58.517Z,94652.91
2023-01-08T19:09:17.081Z,94633.94
2023-01-08T19:14:22.083Z,94633.94
2023-01-08T19:19:24.569Z,94625.81
2023-01-08T19:24:26.811Z,94616.91
2023-01-08T19:29:29.171Z,94585.16
2023-01-08T19:34:31.207Z,94599.84
2023-01-08T19:39:33.584Z,94597.53
2023-01-08T19:44:35.867Z,94595.22
2023-01-08T19:49:39.087Z,94593.28
2023-01-08T19:54:41.022Z,94590.94
2023-01-08T19:59:43.548Z,94579.34
2023-01-08T20:04:45.567Z,94590.56
2023-01-08T20:09:47.618Z,94588.66
2023-01-08T20:14:52.572Z,94572.75
2023-01-08T20:19:54.442Z,94561.16
2023-01-08T20:24:58.657Z,94544.50
2023-01-08T20:30:01.884Z,94546.81
2023-01-08T20:35:04.890Z,94532.50
2023-01-08T20:40:07.380Z,94526.69
2023-01-08T20:45:10.921Z,94503.84
2023-01-08T20:50:20.018Z,94503.06
2023-01-08T20:55:22.503Z,94519.72
2023-01-08T21:00:25.990Z,94495.31
2023-01-08T21:05:28.162Z,94485.28
2023-01-08T21:10:30.207Z,94475.19
2023-01-08T21:15:32.180Z,94466.28
2023-01-08T21:20:34.550Z,94467.44
2023-01-08T21:25:36.444Z,94462.78
2023-01-08T21:30:39.038Z,94467.84
2023-01-08T21:35:40.776Z,94457.38
2023-01-08T21:40:42.527Z,94450.00
2023-01-08T21:45:44.951Z,94453.09
2023-01-08T21:50:47.065Z,94448.06
2023-01-08T21:55:49.018Z,94441.47
2023-01-08T22:00:50.986Z,94438.38
2023-01-08T22:06:01.716Z,94433.31
2023-01-08T22:11:07.999Z,94427.88
2023-01-08T22:16:14.229Z,94418.59
2023-01-08T22:21:16.433Z,94404.28
2023-01-08T22:26:20.296Z,94388.78
2023-01-08T22:31:22.096Z,94377.53
2023-01-08T22:36:25.489Z,94378.31
2023-01-08T22:41:27.237Z,94375.19
2023-01-08T22:46:29.037Z,94377.13
2023-01-08T22:51:30.931Z,94378.66
2023-01-08T22:56:33.295Z,94375.19
2023-01-08T23:01:35.348Z,94361.25
2023-01-08T23:06:39.447Z,94358.53
2023-01-08T23:11:41.606Z,94344.97
2023-01-08T23:16:43.932Z,94329.47
2023-01-08T23:21:45.862Z,94318.63
2023-01-08T23:26:47.634Z,94315.53
2023-01-08T23:31:49.980Z,94315.94
2023-01-08T23:36:52.119Z,94295.00
2023-01-08T23:41:53.912Z,94300.81
2023-01-08T23:46:55.763Z,94292.66
2023-01-08T23:51:57.497Z,94295.00
2023-01-08T23:56:59.598Z,94284.91
